Time;durP1;ratioP1;P1;durP2;ratioP2;P2;SDS_P1;SDS_P2;PMS_P1;PMS_P2;Temp;Humidity;BMP_temperature;BMP_pressure;BME280_temperature;BME280_humidity;BME280_pressure;Samples;Min_cycle;Max_cycle;Signal;HPM_P1;HPM_P2
2023/01/21 00:01:37;;;;;;;14.13;10.07;;;-0.10;99.90;;;;;;5034024;28;20218;-64
2023/01/21 00:04:04;;;;;;;14.83;10.47;;;0.00;99.90;;;;;;5034014;28;20638;-66
2023/01/21 00:06:31;;;;;;;14.13;10.20;;;0.10;99.90;;;;;;5034131;28;20212;-64
2023/01/21 00:08:59;;;;;;;13.67;9.63;;;0.20;99.90;;;;;;5033626;28;20230;-64
2023/01/21 00:11:25;;;;;;;15.67;10.37;;;0.20;99.90;;;;;;5033520;28;20718;-64
2023/01/21 00:13:53;;;;;;;19.07;9.87;;;0.20;99.90;;;;;;5033612;28;20585;-64
2023/01/21 00:16:20;;;;;;;13.37;10.00;;;0.20;99.90;;;;;;5033728;28;20639;-66
2023/01/21 00:18:47;;;;;;;15.07;10.27;;;0.20;99.90;;;;;;5033271;28;20619;-63
2023/01/21 00:21:14;;;;;;;13.13;9.10;;;0.30;99.90;;;;;;5033572;28;20734;-64
2023/01/21 00:23:40;;;;;;;14.43;10.10;;;0.40;99.90;;;;;;5033643;28;20589;-64
2023/01/21 00:26:10;;;;;;;13.97;9.50;;;0.40;99.90;;;;;;5033196;28;20226;-62
2023/01/21 00:28:37;;;;;;;14.10;9.20;;;0.40;99.90;;;;;;5033140;28;20225;-64
2023/01/21 00:31:07;;;;;;;13.13;9.07;;;0.30;99.90;;;;;;5033206;28;20590;-64
2023/01/21 00:33:34;;;;;;;12.43;8.47;;;0.30;99.90;;;;;;5033674;28;20633;-64
2023/01/21 00:36:03;;;;;;;13.10;9.17;;;0.20;99.90;;;;;;5032993;28;20728;-63
2023/01/21 00:38:31;;;;;;;13.60;8.97;;;0.10;99.90;;;;;;5032725;28;20234;-63
2023/01/21 00:41:01;;;;;;;13.40;9.03;;;0.00;99.90;;;;;;5033051;28;20592;-64
2023/01/21 00:43:28;;;;;;;13.43;9.53;;;0.00;99.90;;;;;;5033386;28;20275;-64
2023/01/21 00:45:55;;;;;;;12.10;8.90;;;0.10;99.90;;;;;;5033038;28;20201;-64
2023/01/21 00:48:23;;;;;;;16.50;9.57;;;0.00;99.90;;;;;;5032750;28;20280;-63
2023/01/21 00:50:50;;;;;;;13.40;9.13;;;0.00;99.90;;;;;;5033193;28;20210;-64
2023/01/21 00:53:17;;;;;;;14.77;9.97;;;0.00;99.90;;;;;;5033046;28;20229;-64
2023/01/21 00:55:44;;;;;;;13.70;9.10;;;0.00;99.90;;;;;;5033352;28;20261;-64
2023/01/21 00:58:11;;;;;;;12.73;9.40;;;0.00;99.90;;;;;;5033273;28;20234;-64
2023/01/21 01:00:37;;;;;;;13.87;9.27;;;0.00;99.90;;;;;;5037218;28;20240;-64
2023/01/21 01:03:04;;;;;;;14.13;8.80;;;0.10;99.90;;;;;;5036215;28;20202;-64
2023/01/21 01:05:32;;;;;;;14.30;9.13;;;0.10;99.90;;;;;;5039094;28;20202;-64
2023/01/21 01:07:59;;;;;;;11.83;8.63;;;0.10;99.90;;;;;;5037360;28;20620;-64
2023/01/21 01:10:25;;;;;;;15.87;9.13;;;0.10;99.90;;;;;;5036736;28;20701;-64
2023/01/21 01:12:52;;;;;;;12.70;9.17;;;0.00;99.90;;;;;;5035891;28;20209;-63
2023/01/21 01:15:19;;;;;;;16.03;8.40;;;-0.10;99.90;;;;;;5034844;28;20226;-64
2023/01/21 01:17:45;;;;;;;14.00;8.80;;;-0.10;99.90;;;;;;5034296;28;20264;-63
2023/01/21 01:20:12;;;;;;;12.97;9.47;;;-0.20;99.90;;;;;;5034613;28;20234;-63
2023/01/21 01:22:40;;;;;;;13.27;9.33;;;-0.20;99.90;;;;;;5035937;28;20210;-63
2023/01/21 01:25:07;;;;;;;13.03;8.77;;;-0.30;99.90;;;;;;5042319;28;20206;-62
2023/01/21 01:27:34;;;;;;;12.50;9.00;;;-0.50;99.90;;;;;;5052460;28;20233;-64
2023/01/21 01:30:00;;;;;;;13.37;8.63;;;-0.70;99.90;;;;;;5053084;28;20214;-62
2023/01/21 01:32:27;;;;;;;17.13;9.17;;;-0.80;99.90;;;;;;5050666;28;20629;-63
2023/01/21 01:34:53;;;;;;;13.47;8.90;;;-1.00;99.90;;;;;;5047312;28;20702;-63
2023/01/21 01:37:20;;;;;;;15.07;9.03;;;-1.10;99.90;;;;;;5046825;28;20213;-63
2023/01/21 01:39:48;;;;;;;14.00;9.50;;;-1.30;99.90;;;;;;5052965;28;20330;-63
2023/01/21 01:42:16;;;;;;;15.17;9.60;;;-1.40;99.90;;;;;;5053929;28;20206;-68
2023/01/21 01:44:58;;;;;;;16.43;9.20;;;-1.50;99.90;;;;;;5054072;28;20205;-62
2023/01/21 01:47:30;;;;;;;13.13;9.40;;;-1.40;99.90;;;;;;5052671;28;20241;-63
2023/01/21 01:49:59;;;;;;;13.13;8.97;;;-1.30;99.90;;;;;;5069048;22;20237;-56
2023/01/21 01:52:27;;;;;;;14.43;9.90;;;-1.20;99.90;;;;;;5048775;28;20206;-57
2023/01/21 01:54:57;;;;;;;11.60;9.23;;;-1.20;99.90;;;;;;5056143;28;20233;-56
2023/01/21 01:57:32;;;;;;;12.50;8.93;;;-1.30;99.90;;;;;;5055939;28;20202;-56
2023/01/21 02:00:02;;;;;;;12.83;9.70;;;-1.20;99.90;;;;;;5055779;28;20221;-56
2023/01/21 02:02:29;;;;;;;14.93;9.70;;;-1.20;99.90;;;;;;5055940;28;20297;-57
2023/01/21 02:05:00;;;;;;;13.10;9.47;;;-1.20;99.90;;;;;;5056108;28;20212;-57
2023/01/21 02:07:31;;;;;;;11.70;8.83;;;-1.20;99.90;;;;;;5055529;28;20206;-57
2023/01/21 02:10:00;;;;;;;10.60;8.53;;;-1.20;99.90;;;;;;5055531;28;20232;-57
2023/01/21 02:12:27;;;;;;;12.33;8.70;;;-1.20;99.90;;;;;;5055561;28;20221;-56
2023/01/21 02:14:54;;;;;;;15.73;9.57;;;-1.20;99.90;;;;;;5055752;28;20206;-56
2023/01/21 02:17:35;;;;;;;14.53;9.43;;;-1.30;99.90;;;;;;5055686;28;20209;-57
2023/01/21 02:20:32;;;;;;;13.13;9.73;;;-1.30;99.90;;;;;;5055639;28;20279;-56
2023/01/21 02:23:05;;;;;;;14.37;9.60;;;-1.40;99.90;;;;;;5055742;28;20301;-56
2023/01/21 02:26:10;;;;;;;13.40;8.23;;;-1.50;99.90;;;;;;5056038;28;20244;-57
2023/01/21 02:29:13;;;;;;;14.30;9.27;;;-1.60;99.90;;;;;;5052245;28;20232;-57
2023/01/21 02:32:18;;;;;;;14.17;9.30;;;-1.60;99.90;;;;;;5055824;28;20209;-56
2023/01/21 02:34:52;;;;;;;11.20;9.13;;;-1.70;99.90;;;;;;5054395;28;20202;-57
2023/01/21 02:37:26;;;;;;;13.60;10.07;;;-1.80;99.90;;;;;;5055836;28;20197;-56
2023/01/21 02:40:10;;;;;;;14.10;10.17;;;-1.80;99.90;;;;;;5056188;28;20221;-56
2023/01/21 02:42:44;;;;;;;17.37;10.10;;;-1.70;99.90;;;;;;5056047;28;20213;-57
2023/01/21 02:45:20;;;;;;;14.00;10.37;;;-1.80;99.90;;;;;;5055528;28;20211;-56
2023/01/21 02:47:56;;;;;;;15.67;9.40;;;-1.70;99.90;;;;;;5055335;28;20227;-56
2023/01/21 02:50:28;;;;;;;12.60;9.40;;;-1.80;99.90;;;;;;5055064;28;20240;-56
2023/01/21 02:52:56;;;;;;;13.27;9.17;;;-1.90;99.90;;;;;;5055465;28;20213;-57
2023/01/21 02:55:28;;;;;;;15.53;9.37;;;-1.90;99.90;;;;;;5055343;28;20256;-57
2023/01/21 02:57:58;;;;;;;12.00;9.13;;;-2.00;99.90;;;;;;5055088;28;20209;-56
2023/01/21 03:00:29;;;;;;;13.23;9.17;;;-2.00;99.90;;;;;;5055197;28;20828;-56
2023/01/21 03:03:23;;;;;;;14.47;9.87;;;-1.90;99.90;;;;;;5055199;28;20205;-57
2023/01/21 03:06:18;;;;;;;13.07;9.60;;;-1.90;99.90;;;;;;5055012;28;20267;-56
2023/01/21 03:08:51;;;;;;;16.53;10.10;;;-1.90;99.90;;;;;;5055006;28;20539;-56
2023/01/21 03:11:19;;;;;;;13.00;9.17;;;-1.90;99.90;;;;;;5055211;28;20210;-61
2023/01/21 03:19:32;;;;;;;13.83;9.10;;;-1.80;99.90;;;;;;5054671;28;20228;-56
2023/01/21 03:22:04;;;;;;;11.67;8.50;;;-1.80;99.90;;;;;;5055021;28;20701;-56
2023/01/21 03:24:33;;;;;;;14.77;8.73;;;-1.80;99.90;;;;;;5055212;28;20583;-56
2023/01/21 03:27:00;;;;;;;11.50;9.00;;;-1.90;99.90;;;;;;5055337;28;20293;-56
2023/01/21 03:29:30;;;;;;;15.00;9.17;;;-1.90;99.90;;;;;;5055368;28;20229;-56
2023/01/21 03:32:00;;;;;;;12.37;9.07;;;-1.80;99.90;;;;;;5055363;28;20224;-57
2023/01/21 03:34:29;;;;;;;12.93;8.83;;;-1.80;99.90;;;;;;5055186;28;20566;-58
2023/01/21 03:37:02;;;;;;;13.27;9.00;;;-1.80;99.90;;;;;;5054669;28;20236;-58
2023/01/21 03:39:38;;;;;;;12.13;8.33;;;-1.80;99.90;;;;;;5054444;28;20225;-56
2023/01/21 03:42:05;;;;;;;13.03;8.40;;;-1.80;99.90;;;;;;5053981;28;20197;-57
2023/01/21 03:44:32;;;;;;;12.83;9.27;;;-1.80;99.90;;;;;;5053816;28;20194;-56
2023/01/21 03:47:04;;;;;;;13.17;8.33;;;-1.90;99.90;;;;;;5053597;28;20208;-55
2023/01/21 03:49:34;;;;;;;10.27;8.07;;;-2.00;99.90;;;;;;5054199;28;20244;-56
2023/01/21 03:52:05;;;;;;;12.37;8.73;;;-2.00;99.90;;;;;;5054141;28;20205;-57
2023/01/21 03:54:33;;;;;;;12.73;7.97;;;-2.00;99.90;;;;;;5054092;28;20209;-58
2023/01/21 03:56:59;;;;;;;12.57;8.97;;;-2.00;99.90;;;;;;5053902;28;20233;-56
2023/01/21 03:59:26;;;;;;;16.67;8.87;;;-2.00;99.90;;;;;;5053697;28;20313;-56
2023/01/21 04:01:53;;;;;;;14.03;8.20;;;-2.00;99.90;;;;;;5053714;28;20205;-56
2023/01/21 04:04:19;;;;;;;11.07;8.57;;;-2.00;99.90;;;;;;5053985;28;20208;-57
2023/01/21 04:06:46;;;;;;;12.93;9.50;;;-2.00;99.90;;;;;;5053416;28;20207;-56
2023/01/21 04:09:14;;;;;;;14.33;9.53;;;-2.00;99.90;;;;;;5053195;28;20221;-56
2023/01/21 04:11:41;;;;;;;12.57;8.50;;;-2.00;99.90;;;;;;5053456;28;20201;-56
2023/01/21 04:14:08;;;;;;;14.07;8.80;;;-2.00;99.90;;;;;;5053285;28;20205;-57
2023/01/21 04:16:35;;;;;;;14.00;9.00;;;-2.00;99.90;;;;;;5053001;28;20229;-57
2023/01/21 04:19:02;;;;;;;13.30;9.10;;;-2.10;99.90;;;;;;5053087;28;20308;-57
2023/01/21 04:21:29;;;;;;;16.23;9.47;;;-2.10;99.90;;;;;;5053485;28;20214;-57
2023/01/21 04:23:56;;;;;;;11.80;8.90;;;-2.10;99.90;;;;;;5053000;28;20212;-57
2023/01/21 04:26:24;;;;;;;15.50;9.40;;;-2.00;99.90;;;;;;5053237;28;20202;-58
2023/01/21 04:28:51;;;;;;;12.97;8.50;;;-2.10;99.90;;;;;;5053051;28;20721;-56
2023/01/21 04:31:18;;;;;;;14.20;8.47;;;-2.20;99.90;;;;;;5053097;28;20699;-56
2023/01/21 04:33:44;;;;;;;14.53;8.90;;;-2.20;99.90;;;;;;5053015;28;20590;-57
2023/01/21 04:36:11;;;;;;;12.67;8.73;;;-2.30;99.90;;;;;;5052917;28;20221;-59
2023/01/21 04:38:38;;;;;;;12.67;8.27;;;-2.30;99.90;;;;;;5052874;28;20233;-57
2023/01/21 04:41:05;;;;;;;13.83;8.90;;;-2.30;99.90;;;;;;5052680;28;20216;-57
2023/01/21 04:43:33;;;;;;;18.50;10.07;;;-2.30;99.90;;;;;;5053284;28;20206;-57
2023/01/21 04:46:00;;;;;;;13.03;9.60;;;-2.40;99.90;;;;;;5053272;28;20209;-57
2023/01/21 04:48:27;;;;;;;14.93;9.37;;;-2.40;99.90;;;;;;5052830;28;20271;-57
2023/01/21 04:50:53;;;;;;;12.67;8.43;;;-2.30;99.90;;;;;;5052932;28;20206;-56
2023/01/21 04:53:20;;;;;;;13.10;8.90;;;-2.20;99.90;;;;;;5053272;28;20209;-57
2023/01/21 04:55:47;;;;;;;14.33;8.40;;;-2.20;99.90;;;;;;5052770;28;20205;-56
2023/01/21 04:58:14;;;;;;;13.17;9.13;;;-2.10;99.90;;;;;;5051985;28;20263;-62
2023/01/21 05:00:42;;;;;;;12.83;8.37;;;-2.10;99.90;;;;;;5052699;28;20296;-57
2023/01/21 05:03:09;;;;;;;13.33;8.67;;;-2.00;99.90;;;;;;5052693;28;20206;-57
2023/01/21 05:05:36;;;;;;;11.93;7.97;;;-2.00;99.90;;;;;;5052701;28;20205;-57
2023/01/21 05:08:02;;;;;;;14.73;8.67;;;-2.00;99.90;;;;;;5052665;28;20288;-57
2023/01/21 05:10:29;;;;;;;12.10;8.37;;;-2.00;99.90;;;;;;5052744;28;20605;-57
2023/01/21 05:12:56;;;;;;;13.13;8.33;;;-2.00;99.90;;;;;;5052426;28;20236;-57
2023/01/21 05:15:23;;;;;;;11.23;8.03;;;-1.90;99.90;;;;;;5052803;28;20574;-59
2023/01/21 05:17:51;;;;;;;11.87;8.03;;;-2.00;99.90;;;;;;5052918;28;20229;-58
2023/01/21 05:20:18;;;;;;;13.37;7.63;;;-2.00;99.90;;;;;;5052635;28;20229;-57
2023/01/21 05:22:46;;;;;;;11.03;7.77;;;-2.00;99.90;;;;;;5052439;28;20670;-58
2023/01/21 05:25:13;;;;;;;10.83;7.97;;;-2.00;99.90;;;;;;5052784;28;20193;-57
2023/01/21 05:27:40;;;;;;;9.57;7.30;;;-2.10;99.90;;;;;;5052597;28;20205;-57
2023/01/21 05:30:08;;;;;;;12.07;8.37;;;-2.10;99.90;;;;;;5052785;28;20232;-57
2023/01/21 05:32:35;;;;;;;15.13;9.37;;;-2.10;99.90;;;;;;5052907;28;20213;-57
2023/01/21 05:35:03;;;;;;;13.03;9.03;;;-2.10;99.90;;;;;;5053003;28;20217;-57
2023/01/21 05:37:30;;;;;;;12.07;8.30;;;-2.00;99.90;;;;;;5052633;28;20231;-58
2023/01/21 05:39:57;;;;;;;14.67;9.83;;;-2.00;99.90;;;;;;5052965;28;20241;-57
2023/01/21 05:42:23;;;;;;;12.73;9.33;;;-2.00;99.90;;;;;;5052970;28;20207;-57
2023/01/21 05:44:50;;;;;;;14.37;9.60;;;-2.10;99.90;;;;;;5052547;28;20209;-58
2023/01/21 05:47:17;;;;;;;13.17;9.73;;;-2.10;99.90;;;;;;5052498;28;20198;-57
2023/01/21 05:49:44;;;;;;;14.87;9.87;;;-2.10;99.90;;;;;;5052698;28;20344;-57
2023/01/21 05:52:12;;;;;;;20.27;11.73;;;-2.00;99.90;;;;;;5053190;28;20300;-58
2023/01/21 05:54:38;;;;;;;20.47;13.10;;;-2.00;99.90;;;;;;5052939;28;20236;-58
2023/01/21 05:57:05;;;;;;;20.33;14.00;;;-2.10;99.90;;;;;;5052808;28;20221;-57
2023/01/21 05:59:32;;;;;;;21.57;14.60;;;-2.20;99.90;;;;;;5052665;28;20237;-58
2023/01/21 06:01:58;;;;;;;21.53;14.83;;;-2.30;99.90;;;;;;5053302;28;20212;-58
2023/01/21 06:04:29;;;;;;;24.00;15.53;;;-2.30;99.90;;;;;;5053212;28;20300;-57
2023/01/21 06:06:56;;;;;;;22.37;14.53;;;-2.30;99.90;;;;;;5052723;28;20206;-58
2023/01/21 06:09:24;;;;;;;21.73;13.70;;;-2.40;99.90;;;;;;5053817;28;20232;-57
2023/01/21 06:11:51;;;;;;;21.27;13.57;;;-2.50;99.90;;;;;;5055906;28;20410;-58
2023/01/21 06:14:18;;;;;;;20.13;12.87;;;-2.50;99.90;;;;;;5055625;28;20202;-57
2023/01/21 06:16:45;;;;;;;21.83;12.60;;;-2.40;99.90;;;;;;5055753;28;20221;-57
2023/01/21 06:19:11;;;;;;;18.00;11.67;;;-2.40;99.90;;;;;;5055630;28;20230;-57
2023/01/21 06:21:38;;;;;;;20.83;12.40;;;-2.30;99.90;;;;;;5056284;28;20216;-57
2023/01/21 06:24:05;;;;;;;19.73;13.03;;;-2.30;99.90;;;;;;5056457;28;20213;-58
2023/01/21 06:26:34;;;;;;;20.07;13.10;;;-2.20;99.90;;;;;;5055954;28;20292;-58
2023/01/21 06:29:01;;;;;;;21.47;13.60;;;-2.20;99.90;;;;;;5055277;28;20229;-57
2023/01/21 06:31:27;;;;;;;19.63;13.90;;;-2.10;99.90;;;;;;5055432;28;20213;-57
2023/01/21 06:33:54;;;;;;;18.90;13.37;;;-2.00;99.90;;;;;;5055588;28;20581;-58
2023/01/21 06:36:21;;;;;;;18.20;12.17;;;-2.00;99.90;;;;;;5055449;28;20233;-58
2023/01/21 06:38:48;;;;;;;20.63;12.57;;;-2.00;99.90;;;;;;5054999;28;20225;-57
2023/01/21 06:41:14;;;;;;;17.67;12.03;;;-1.40;99.90;;;;;;5054910;28;20252;-57
2023/01/21 06:43:43;;;;;;;21.97;13.20;;;-1.90;99.90;;;;;;5055596;28;20210;-57
2023/01/21 06:46:10;;;;;;;20.47;12.83;;;-1.90;99.90;;;;;;5055491;28;20298;-58
2023/01/21 06:48:37;;;;;;;20.80;13.03;;;-1.90;99.90;;;;;;5055473;28;20252;-57
2023/01/21 06:51:04;;;;;;;20.57;12.77;;;-1.90;99.90;;;;;;5056085;28;20619;-59
2023/01/21 06:53:31;;;;;;;19.20;12.17;;;-1.90;99.90;;;;;;5054945;28;20212;-60
2023/01/21 06:55:58;;;;;;;20.63;12.60;;;-1.80;99.90;;;;;;5054824;28;20209;-58
2023/01/21 06:58:24;;;;;;;27.40;17.57;;;-1.70;99.90;;;;;;5054349;28;20725;-57
2023/01/21 07:00:55;;;;;;;23.23;14.40;;;-1.60;99.90;;;;;;5055033;28;20207;-58
2023/01/21 07:03:22;;;;;;;30.87;17.77;;;-1.50;99.90;;;;;;5055168;28;20206;-58
2023/01/21 07:05:49;;;;;;;23.63;15.00;;;-1.50;99.90;;;;;;5054553;28;20296;-57
2023/01/21 07:08:16;;;;;;;23.50;15.50;;;-1.40;99.90;;;;;;5054418;28;20614;-58
2023/01/21 07:10:42;;;;;;;22.93;14.80;;;-1.30;99.90;;;;;;5054627;28;20198;-58
2023/01/21 07:13:09;;;;;;;22.70;14.77;;;-1.20;99.90;;;;;;5054531;28;20611;-56
2023/01/21 07:15:36;;;;;;;24.10;15.10;;;-1.00;99.90;;;;;;5054764;28;20547;-57
2023/01/21 07:18:04;;;;;;;21.33;14.90;;;-0.80;99.90;;;;;;5054447;28;20731;-57
2023/01/21 07:20:31;;;;;;;24.43;14.57;;;-0.60;99.90;;;;;;5053620;28;20228;-57
2023/01/21 07:22:58;;;;;;;24.63;15.47;;;-0.40;99.90;;;;;;5055042;28;20220;-57
2023/01/21 07:25:25;;;;;;;20.23;12.63;;;-0.20;99.90;;;;;;5054520;28;20220;-57
2023/01/21 07:27:52;;;;;;;19.27;12.73;;;0.00;99.90;;;;;;5054362;28;20205;-57
2023/01/21 07:30:20;;;;;;;17.13;11.10;;;0.20;99.90;;;;;;5054619;28;20658;-57
2023/01/21 07:32:47;;;;;;;16.33;10.83;;;0.30;99.90;;;;;;5054301;28;20508;-57
2023/01/21 07:35:16;;;;;;;17.40;11.83;;;0.40;99.90;;;;;;5054204;28;20206;-57
2023/01/21 07:37:43;;;;;;;18.17;12.77;;;0.50;99.90;;;;;;5054032;28;20218;-57
2023/01/21 07:40:11;;;;;;;19.23;13.47;;;0.50;99.90;;;;;;5054203;28;20229;-56
2023/01/21 07:42:38;;;;;;;19.77;13.00;;;0.60;99.90;;;;;;5054227;28;20288;-57
2023/01/21 07:45:06;;;;;;;22.80;14.80;;;0.70;99.90;;;;;;5054193;28;20205;-57
2023/01/21 07:47:33;;;;;;;20.73;13.37;;;0.70;99.90;;;;;;5053866;28;20198;-58
2023/01/21 07:50:03;;;;;;;17.47;12.47;;;0.80;99.90;;;;;;5054457;28;20248;-57
2023/01/21 07:52:31;;;;;;;19.07;12.87;;;0.90;99.90;;;;;;5054416;28;20228;-56
2023/01/21 07:54:58;;;;;;;21.37;14.30;;;1.00;99.90;;;;;;5054021;28;20579;-56
2023/01/21 07:57:25;;;;;;;21.90;13.77;;;1.10;99.90;;;;;;5053949;28;20221;-56
2023/01/21 07:59:52;;;;;;;21.07;13.37;;;1.30;99.90;;;;;;5054221;28;20517;-56
2023/01/21 08:02:18;;;;;;;19.97;13.47;;;1.30;99.90;;;;;;5054149;28;20218;-55
2023/01/21 08:04:45;;;;;;;21.20;13.90;;;1.40;99.90;;;;;;5053886;28;20213;-55
2023/01/21 08:07:12;;;;;;;18.77;13.07;;;1.50;99.90;;;;;;5053711;28;20683;-56
2023/01/21 08:09:41;;;;;;;21.50;14.50;;;1.60;99.90;;;;;;5054443;28;20240;-55
2023/01/21 08:12:11;;;;;;;20.77;15.33;;;1.60;99.90;;;;;;5054327;28;20194;-54
2023/01/21 08:14:38;;;;;;;19.53;14.53;;;1.70;99.90;;;;;;5054813;28;20206;-55
2023/01/21 08:17:05;;;;;;;21.57;14.53;;;1.70;99.90;;;;;;5053894;28;20221;-55
2023/01/21 08:19:32;;;;;;;23.97;14.53;;;1.80;99.90;;;;;;5054062;28;20727;-56
2023/01/21 08:21:59;;;;;;;22.03;14.63;;;1.90;99.90;;;;;;5054357;28;20704;-57
2023/01/21 08:24:25;;;;;;;19.97;13.67;;;2.00;99.90;;;;;;5054604;28;20669;-55
2023/01/21 08:26:57;;;;;;;23.37;15.20;;;2.00;99.90;;;;;;5054489;28;20267;-55
2023/01/21 08:29:24;;;;;;;21.03;14.10;;;1.90;99.90;;;;;;5054077;28;20763;-55
2023/01/21 08:31:52;;;;;;;19.07;13.30;;;1.90;99.90;;;;;;5054806;28;20209;-57
2023/01/21 08:34:19;;;;;;;31.30;20.40;;;2.00;99.90;;;;;;5054395;28;20215;-56
2023/01/21 08:36:46;;;;;;;22.80;14.10;;;1.90;99.90;;;;;;5053962;28;20216;-56
2023/01/21 08:39:13;;;;;;;21.93;14.63;;;2.00;99.90;;;;;;5054177;28;20394;-56
2023/01/21 08:41:40;;;;;;;30.27;19.33;;;2.10;99.90;;;;;;5054733;28;20297;-56
2023/01/21 08:44:08;;;;;;;24.90;15.13;;;2.30;99.90;;;;;;5054304;28;20213;-56
2023/01/21 08:46:35;;;;;;;25.50;15.53;;;2.30;99.90;;;;;;5054612;28;20209;-56
2023/01/21 08:49:02;;;;;;;20.50;14.07;;;2.40;99.90;;;;;;5054337;28;20287;-57
2023/01/21 08:51:29;;;;;;;23.63;14.73;;;2.50;99.90;;;;;;5054433;28;20284;-56
2023/01/21 08:53:55;;;;;;;21.00;14.50;;;2.60;99.90;;;;;;5053958;28;20205;-56
2023/01/21 08:56:22;;;;;;;24.80;16.77;;;2.70;99.90;;;;;;5054406;28;20236;-56
2023/01/21 08:58:54;;;;;;;20.03;13.70;;;2.70;99.90;;;;;;5053768;28;20693;-56
2023/01/21 09:01:23;;;;;;;20.17;14.47;;;2.80;99.90;;;;;;5054268;28;20205;-56
2023/01/21 09:03:53;;;;;;;20.80;14.03;;;2.80;99.90;;;;;;5053549;28;20693;-56
2023/01/21 09:06:20;;;;;;;21.53;14.53;;;2.80;99.90;;;;;;5053588;28;20213;-56
2023/01/21 09:08:47;;;;;;;21.80;13.97;;;2.80;99.90;;;;;;5053097;28;20229;-56
2023/01/21 09:11:15;;;;;;;21.07;14.20;;;2.80;99.90;;;;;;5053248;28;20213;-56
2023/01/21 09:13:43;;;;;;;20.07;14.10;;;2.90;99.90;;;;;;5053273;28;20205;-56
2023/01/21 09:16:12;;;;;;;18.37;13.00;;;3.00;99.90;;;;;;5053037;28;20304;-56
2023/01/21 09:18:41;;;;;;;20.77;14.17;;;3.10;99.90;;;;;;5052503;28;20260;-56
2023/01/21 09:21:08;;;;;;;22.57;13.43;;;3.20;99.90;;;;;;5052566;28;20205;-55
2023/01/21 09:23:35;;;;;;;18.40;13.23;;;3.30;99.90;;;;;;5052752;28;20214;-58
2023/01/21 09:26:05;;;;;;;20.50;13.30;;;3.40;99.90;;;;;;5052759;28;20285;-57
2023/01/21 09:28:34;;;;;;;17.50;13.03;;;3.50;99.90;;;;;;5052119;28;20237;-58
2023/01/21 09:31:02;;;;;;;19.23;13.00;;;3.60;99.90;;;;;;5053077;28;20292;-56
2023/01/21 09:33:30;;;;;;;20.10;13.53;;;3.50;99.90;;;;;;5053126;28;20205;-55
2023/01/21 09:36:01;;;;;;;20.83;14.07;;;3.40;99.90;;;;;;5053112;28;20673;-56
2023/01/21 09:38:29;;;;;;;18.20;13.60;;;3.50;99.90;;;;;;5053100;28;20229;-56
2023/01/21 09:41:00;;;;;;;20.20;13.73;;;3.70;99.90;;;;;;5053302;28;20201;-57
2023/01/21 09:43:34;;;;;;;20.00;13.83;;;3.80;99.90;;;;;;5053512;28;20654;-58
2023/01/21 09:46:03;;;;;;;19.57;13.83;;;3.80;99.90;;;;;;5057516;28;20566;-56
2023/01/21 09:48:33;;;;;;;19.53;13.40;;;3.90;99.90;;;;;;5056635;28;20229;-56
2023/01/21 09:51:05;;;;;;;19.10;12.67;;;3.90;99.90;;;;;;5056664;28;20637;-55
2023/01/21 09:53:41;;;;;;;20.23;12.90;;;3.90;99.90;;;;;;5056520;28;20231;-56
2023/01/21 09:56:21;;;;;;;19.07;13.07;;;4.00;99.90;;;;;;5057080;28;20240;-56
2023/01/21 09:58:52;;;;;;;19.07;13.03;;;4.10;99.90;;;;;;5056903;28;20236;-56
2023/01/21 10:01:24;;;;;;;20.20;13.43;;;4.10;99.90;;;;;;5057149;28;20205;-57
2023/01/21 10:03:55;;;;;;;18.83;13.33;;;4.10;99.90;;;;;;5056307;28;20209;-56
2023/01/21 10:06:30;;;;;;;16.20;12.30;;;4.20;99.90;;;;;;5056094;28;20208;-53
2023/01/21 10:09:34;;;;;;;17.87;13.10;;;4.20;99.90;;;;;;5056327;28;20228;-55
2023/01/21 10:12:28;;;;;;;17.13;12.23;;;4.30;99.90;;;;;;5056239;28;20217;-53
2023/01/21 10:15:35;;;;;;;18.83;13.20;;;4.00;99.90;;;;;;5042393;28;20673;-54
2023/01/21 10:18:04;;;;;;;16.87;11.13;;;3.50;99.90;;;;;;5055597;28;20581;-53
2023/01/21 10:20:44;;;;;;;19.43;12.20;;;3.10;99.90;;;;;;5056320;28;20209;-54
2023/01/21 10:23:17;;;;;;;17.57;12.00;;;2.90;99.90;;;;;;5056145;28;20209;-52
2023/01/21 10:25:48;;;;;;;16.83;11.63;;;3.00;99.90;;;;;;5055717;28;20210;-52
2023/01/21 10:28:21;;;;;;;17.50;11.90;;;2.80;99.90;;;;;;5055462;28;20331;-52
2023/01/21 10:30:51;;;;;;;18.00;12.33;;;2.50;99.90;;;;;;5056295;28;20267;-53
2023/01/21 10:33:20;;;;;;;18.50;12.90;;;2.30;99.90;;;;;;5055827;28;20225;-53
2023/01/21 10:36:09;;;;;;;20.33;12.37;;;2.40;99.90;;;;;;5056087;28;20209;-52
2023/01/21 10:38:43;;;;;;;15.67;11.70;;;2.40;99.90;;;;;;5055856;28;20241;-53
2023/01/21 10:41:25;;;;;;;18.90;13.20;;;2.70;99.90;;;;;;5055664;28;20240;-54
2023/01/21 10:43:57;;;;;;;16.67;11.73;;;3.10;99.90;;;;;;5055877;28;20416;-53
2023/01/21 10:46:33;;;;;;;17.57;12.17;;;3.70;99.90;;;;;;5055918;28;20209;-53
2023/01/21 10:49:17;;;;;;;16.27;11.67;;;3.90;99.90;;;;;;5055290;28;20240;-54
2023/01/21 10:51:49;;;;;;;17.60;11.30;;;3.80;99.90;;;;;;5055894;28;20213;-53
2023/01/21 10:54:26;;;;;;;18.93;11.53;;;3.80;99.90;;;;;;5055444;28;20584;-53
2023/01/21 10:56:58;;;;;;;15.33;11.50;;;3.70;99.90;;;;;;5055114;28;20201;-53
2023/01/21 10:59:30;;;;;;;17.97;11.50;;;3.90;99.90;;;;;;5055353;28;20275;-52
2023/01/21 11:02:10;;;;;;;15.47;10.90;;;3.90;99.90;;;;;;5055584;28;20206;-53
2023/01/21 11:04:40;;;;;;;18.23;11.30;;;3.70;99.90;;;;;;5055534;28;20213;-54
2023/01/21 11:07:09;;;;;;;15.17;11.27;;;3.60;99.90;;;;;;5055279;28;20233;-54
2023/01/21 11:09:41;;;;;;;15.97;10.43;;;3.50;99.90;;;;;;5055036;28;20225;-53
2023/01/21 11:12:10;;;;;;;16.27;10.80;;;3.40;99.90;;;;;;5054790;28;20201;-54
2023/01/21 11:14:37;;;;;;;15.50;10.90;;;3.20;99.90;;;;;;5055136;28;20205;-55
2023/01/21 11:17:03;;;;;;;15.77;10.53;;;3.10;99.90;;;;;;5055230;28;20209;-53
2023/01/21 11:19:31;;;;;;;16.37;10.23;;;3.20;99.90;;;;;;5054735;28;20233;-53
2023/01/21 11:22:00;;;;;;;15.87;10.87;;;3.20;99.90;;;;;;5055215;28;20265;-53
2023/01/21 11:24:28;;;;;;;14.90;10.50;;;3.10;99.90;;;;;;5055482;28;20489;-53
2023/01/21 11:26:59;;;;;;;17.03;11.20;;;3.10;99.90;;;;;;5054636;28;20295;-55
2023/01/21 11:29:26;;;;;;;14.97;10.20;;;3.10;99.90;;;;;;5054172;28;20640;-53
2023/01/21 11:32:03;;;;;;;15.90;9.90;;;3.20;99.90;;;;;;5054292;28;20566;-55
2023/01/21 11:34:30;;;;;;;12.80;9.60;;;3.20;99.90;;;;;;5054677;28;20208;-54
2023/01/21 11:36:59;;;;;;;14.47;9.73;;;3.20;99.90;;;;;;5054352;28;20231;-53
2023/01/21 11:39:27;;;;;;;12.93;9.17;;;3.30;99.90;;;;;;5053958;28;20241;-54
2023/01/21 11:41:58;;;;;;;13.13;9.00;;;3.30;99.90;;;;;;5054440;28;20233;-53
2023/01/21 11:44:25;;;;;;;13.80;8.83;;;3.20;99.90;;;;;;5054451;28;20210;-53
2023/01/21 11:46:52;;;;;;;16.50;10.07;;;3.00;99.90;;;;;;5054658;28;20586;-54
2023/01/21 11:49:31;;;;;;;15.00;9.30;;;2.80;99.90;;;;;;5054434;28;20260;-52
2023/01/21 11:52:15;;;;;;;15.17;9.37;;;2.60;99.90;;;;;;5054879;28;20252;-53
2023/01/21 11:54:42;;;;;;;14.17;9.70;;;2.40;99.90;;;;;;5054600;28;20217;-54
2023/01/21 11:57:22;;;;;;;15.50;9.60;;;2.50;99.90;;;;;;5054283;28;20217;-53
2023/01/21 11:59:52;;;;;;;16.80;9.73;;;2.50;99.90;;;;;;5048771;28;20230;-55
2023/01/21 12:02:21;;;;;;;14.00;9.80;;;2.50;99.90;;;;;;5034324;28;20293;-63
2023/01/21 12:04:52;;;;;;;17.37;10.43;;;2.50;99.90;;;;;;5053911;28;20632;-59
2023/01/21 12:07:21;;;;;;;16.67;11.23;;;2.50;99.90;;;;;;5053045;28;20213;-56
2023/01/21 12:09:50;;;;;;;16.37;10.00;;;2.50;99.90;;;;;;5052739;28;20287;-57
2023/01/21 12:12:40;;;;;;;15.13;9.57;;;2.60;99.90;;;;;;5053068;28;20205;-57
2023/01/21 12:15:30;;;;;;;16.70;10.10;;;2.60;99.90;;;;;;5053628;28;20210;-58
2023/01/21 12:18:08;;;;;;;17.73;9.33;;;2.70;99.90;;;;;;5053017;28;20213;-57
2023/01/21 12:20:43;;;;;;;15.77;9.27;;;2.60;99.90;;;;;;5053152;28;20216;-58
2023/01/21 12:23:28;;;;;;;16.30;9.17;;;2.70;99.90;;;;;;5053370;28;20197;-57
2023/01/21 12:25:59;;;;;;;14.87;10.67;;;2.70;99.90;;;;;;5053045;28;20205;-57
2023/01/21 12:28:54;;;;;;;16.57;10.70;;;2.70;99.90;;;;;;5052229;28;20386;-58
2023/01/21 12:31:28;;;;;;;14.83;10.07;;;2.90;99.90;;;;;;5052901;28;20205;-58
2023/01/21 12:34:01;;;;;;;16.57;10.33;;;3.10;99.90;;;;;;5053082;28;20216;-59
2023/01/21 12:36:34;;;;;;;16.03;10.17;;;3.20;99.90;;;;;;5053231;28;20596;-58
2023/01/21 12:39:15;;;;;;;15.77;9.67;;;3.10;99.90;;;;;;5052489;28;20233;-58
2023/01/21 12:41:46;;;;;;;15.93;9.13;;;3.10;99.90;;;;;;5053114;28;20209;-61
2023/01/21 12:44:24;;;;;;;14.50;9.50;;;3.00;99.90;;;;;;5053765;28;20215;-59
2023/01/21 12:46:56;;;;;;;14.43;9.03;;;2.90;99.90;;;;;;5052448;28;20704;-60
2023/01/21 12:49:28;;;;;;;14.77;9.70;;;2.80;99.90;;;;;;5053376;28;20237;-57
2023/01/21 12:51:59;;;;;;;12.83;9.20;;;2.80;99.90;;;;;;5051760;28;20657;-58
2023/01/21 12:54:35;;;;;;;12.73;8.63;;;2.70;99.90;;;;;;5052553;28;20220;-60
2023/01/21 12:57:11;;;;;;;14.23;9.00;;;2.60;99.90;;;;;;5053318;28;20217;-57
2023/01/21 12:59:43;;;;;;;12.63;8.63;;;2.60;99.90;;;;;;5051546;28;20243;-57